sensor_id;sensor_type;location;lat;lon;timestamp;temperature;humidity
9410;DHT22;4744;52.576;13.568;2023-02-13T00:02:24;7.50;88.50
9410;DHT22;4744;52.576;13.568;2023-02-13T00:04:53;7.40;90.50
9410;DHT22;4744;52.576;13.568;2023-02-13T00:07:20;7.40;89.40
9410;DHT22;4744;52.576;13.568;2023-02-13T00:09:46;7.40;90.10
9410;DHT22;4744;52.576;13.568;2023-02-13T00:12:13;7.40;89.50
9410;DHT22;4744;52.576;13.568;2023-02-13T00:14:40;7.40;90.00
9410;DHT22;4744;52.576;13.568;2023-02-13T00:17:07;7.40;90.00
9410;DHT22;4744;52.576;13.568;2023-02-13T00:19:34;7.40;90.00
9410;DHT22;4744;52.576;13.568;2023-02-13T00:22:02;7.30;90.30
9410;DHT22;4744;52.576;13.568;2023-02-13T00:24:29;7.30;89.50
9410;DHT22;4744;52.576;13.568;2023-02-13T00:26:56;7.30;88.40
9410;DHT22;4744;52.576;13.568;2023-02-13T00:29:23;7.30;89.80
9410;DHT22;4744;52.576;13.568;2023-02-13T00:31:50;7.20;90.00
9410;DHT22;4744;52.576;13.568;2023-02-13T00:34:17;7.20;88.60
9410;DHT22;4744;52.576;13.568;2023-02-13T00:36:44;7.20;88.70
9410;DHT22;4744;52.576;13.568;2023-02-13T00:39:12;7.20;90.30
9410;DHT22;4744;52.576;13.568;2023-02-13T00:41:39;7.20;90.00
9410;DHT22;4744;52.576;13.568;2023-02-13T00:44:07;7.20;90.70
9410;DHT22;4744;52.576;13.568;2023-02-13T00:46:34;7.20;90.40
9410;DHT22;4744;52.576;13.568;2023-02-13T00:49:03;7.10;88.00
9410;DHT22;4744;52.576;13.568;2023-02-13T00:51:30;7.10;87.40
9410;DHT22;4744;52.576;13.568;2023-02-13T00:53:57;7.10;87.90
9410;DHT22;4744;52.576;13.568;2023-02-13T00:56:25;7.10;89.00
9410;DHT22;4744;52.576;13.568;2023-02-13T00:58:52;7.10;87.60
9410;DHT22;4744;52.576;13.568;2023-02-13T01:01:19;7.10;90.80
9410;DHT22;4744;52.576;13.568;2023-02-13T01:03:46;7.10;92.40
9410;DHT22;4744;52.576;13.568;2023-02-13T01:06:13;7.10;91.60
9410;DHT22;4744;52.576;13.568;2023-02-13T01:08:40;7.10;91.30
9410;DHT22;4744;52.576;13.568;2023-02-13T01:11:07;7.10;91.50
9410;DHT22;4744;52.576;13.568;2023-02-13T01:13:36;7.10;91.90
9410;DHT22;4744;52.576;13.568;2023-02-13T01:16:03;7.00;91.50
9410;DHT22;4744;52.576;13.568;2023-02-13T01:18:30;7.00;91.80
9410;DHT22;4744;52.576;13.568;2023-02-13T01:20:58;7.00;91.90
9410;DHT22;4744;52.576;13.568;2023-02-13T01:23:29;7.00;91.90
9410;DHT22;4744;52.576;13.568;2023-02-13T01:25:56;7.00;91.80
9410;DHT22;4744;52.576;13.568;2023-02-13T01:28:23;6.90;91.60
9410;DHT22;4744;52.576;13.568;2023-02-13T01:30:55;6.90;90.50
9410;DHT22;4744;52.576;13.568;2023-02-13T01:33:23;6.90;90.00
9410;DHT22;4744;52.576;13.568;2023-02-13T01:35:51;6.90;88.20
9410;DHT22;4744;52.576;13.568;2023-02-13T01:38:18;6.90;86.50
9410;DHT22;4744;52.576;13.568;2023-02-13T01:40:46;6.80;82.90
9410;DHT22;4744;52.576;13.568;2023-02-13T01:43:14;6.80;78.60
9410;DHT22;4744;52.576;13.568;2023-02-13T01:45:41;6.80;74.10
9410;DHT22;4744;52.576;13.568;2023-02-13T01:48:14;6.80;67.80
9410;DHT22;4744;52.576;13.568;2023-02-13T01:50:46;6.80;61.90
9410;DHT22;4744;52.576;13.568;2023-02-13T01:53:18;6.80;56.30
9410;DHT22;4744;52.576;13.568;2023-02-13T01:55:49;6.80;47.00
9410;DHT22;4744;52.576;13.568;2023-02-13T01:58:20;6.80;41.70
9410;DHT22;4744;52.576;13.568;2023-02-13T02:00:48;6.80;37.10
9410;DHT22;4744;52.576;13.568;2023-02-13T02:03:20;6.80;27.20
9410;DHT22;4744;52.576;13.568;2023-02-13T02:05:49;6.80;26.90
9410;DHT22;4744;52.576;13.568;2023-02-13T02:08:17;6.70;20.90
9410;DHT22;4744;52.576;13.568;2023-02-13T02:10:44;6.70;17.40
9410;DHT22;4744;52.576;13.568;2023-02-13T02:13:13;6.70;15.20
9410;DHT22;4744;52.576;13.568;2023-02-13T02:15:42;6.70;8.20
9410;DHT22;4744;52.576;13.568;2023-02-13T02:18:13;6.70;6.80
9410;DHT22;4744;52.576;13.568;2023-02-13T02:21:10;6.70;2.80
9410;DHT22;4744;52.576;13.568;2023-02-13T02:23:55;6.70;2.80
9410;DHT22;4744;52.576;13.568;2023-02-13T02:26:58;6.70;1.00
9410;DHT22;4744;52.576;13.568;2023-02-13T02:32:47;6.70;1.00
9410;DHT22;4744;52.576;13.568;2023-02-13T02:35:29;6.70;1.00
9410;DHT22;4744;52.576;13.568;2023-02-13T02:38:11;6.60;1.00
9410;DHT22;4744;52.576;13.568;2023-02-13T02:40:46;6.60;1.00
9410;DHT22;4744;52.576;13.568;2023-02-13T02:43:29;6.60;1.00
9410;DHT22;4744;52.576;13.568;2023-02-13T02:46:07;6.60;1.00
9410;DHT22;4744;52.576;13.568;2023-02-13T02:48:42;6.60;1.00
9410;DHT22;4744;52.576;13.568;2023-02-13T02:51:35;6.60;1.00
9410;DHT22;4744;52.576;13.568;2023-02-13T02:54:09;6.60;1.00
9410;DHT22;4744;52.576;13.568;2023-02-13T02:56:53;6.60;1.00
9410;DHT22;4744;52.576;13.568;2023-02-13T02:59:24;6.60;1.00
9410;DHT22;4744;52.576;13.568;2023-02-13T03:02:09;6.50;1.00
9410;DHT22;4744;52.576;13.568;2023-02-13T03:04:58;6.50;1.00
9410;DHT22;4744;52.576;13.568;2023-02-13T03:07:43;6.50;1.00
9410;DHT22;4744;52.576;13.568;2023-02-13T03:10:14;6.50;1.00
9410;DHT22;4744;52.576;13.568;2023-02-13T03:13:02;6.50;1.00
9410;DHT22;4744;52.576;13.568;2023-02-13T03:15:51;6.40;1.00
9410;DHT22;4744;52.576;13.568;2023-02-13T03:18:38;6.40;1.00
9410;DHT22;4744;52.576;13.568;2023-02-13T03:21:32;6.40;1.00
9410;DHT22;4744;52.576;13.568;2023-02-13T03:24:27;6.40;1.00
9410;DHT22;4744;52.576;13.568;2023-02-13T03:27:00;6.40;1.00
9410;DHT22;4744;52.576;13.568;2023-02-13T03:29:41;6.40;1.00
9410;DHT22;4744;52.576;13.568;2023-02-13T03:32:45;6.40;1.00
9410;DHT22;4744;52.576;13.568;2023-02-13T03:35:24;6.30;1.00
9410;DHT22;4744;52.576;13.568;2023-02-13T03:38:15;6.30;1.00
9410;DHT22;4744;52.576;13.568;2023-02-13T03:40:49;6.30;1.00
9410;DHT22;4744;52.576;13.568;2023-02-13T03:43:40;6.30;1.00
9410;DHT22;4744;52.576;13.568;2023-02-13T03:46:11;6.30;1.00
9410;DHT22;4744;52.576;13.568;2023-02-13T03:48:39;6.30;1.00
9410;DHT22;4744;52.576;13.568;2023-02-13T03:51:28;6.30;1.00
9410;DHT22;4744;52.576;13.568;2023-02-13T03:53:59;6.30;1.00
9410;DHT22;4744;52.576;13.568;2023-02-13T03:56:29;6.30;1.00
9410;DHT22;4744;52.576;13.568;2023-02-13T03:59:20;6.30;1.00
9410;DHT22;4744;52.576;13.568;2023-02-13T04:01:53;6.30;1.00
9410;DHT22;4744;52.576;13.568;2023-02-13T04:04:25;6.30;1.00
9410;DHT22;4744;52.576;13.568;2023-02-13T04:06:57;6.30;1.00
9410;DHT22;4744;52.576;13.568;2023-02-13T04:09:28;6.20;1.00
9410;DHT22;4744;52.576;13.568;2023-02-13T04:12:02;6.30;1.00
9410;DHT22;4744;52.576;13.568;2023-02-13T04:14:36;6.20;1.00
9410;DHT22;4744;52.576;13.568;2023-02-13T04:17:05;6.20;1.00
9410;DHT22;4744;52.576;13.568;2023-02-13T04:19:33;6.20;1.00
9410;DHT22;4744;52.576;13.568;2023-02-13T04:22:10;6.20;1.00
9410;DHT22;4744;52.576;13.568;2023-02-13T04:24:39;6.20;1.00
9410;DHT22;4744;52.576;13.568;2023-02-13T04:27:06;6.20;1.00
9410;DHT22;4744;52.576;13.568;2023-02-13T04:29:33;6.20;1.00
9410;DHT22;4744;52.576;13.568;2023-02-13T04:31:59;6.20;1.00
9410;DHT22;4744;52.576;13.568;2023-02-13T04:34:26;6.20;1.00
9410;DHT22;4744;52.576;13.568;2023-02-13T04:36:53;6.20;1.00
9410;DHT22;4744;52.576;13.568;2023-02-13T04:39:20;6.20;1.00
9410;DHT22;4744;52.576;13.568;2023-02-13T04:41:48;6.20;1.00
9410;DHT22;4744;52.576;13.568;2023-02-13T04:44:15;6.20;1.00
9410;DHT22;4744;52.576;13.568;2023-02-13T04:46:42;6.20;1.00
9410;DHT22;4744;52.576;13.568;2023-02-13T04:49:09;6.20;1.00
9410;DHT22;4744;52.576;13.568;2023-02-13T04:51:36;6.20;1.00
9410;DHT22;4744;52.576;13.568;2023-02-13T04:54:04;6.20;1.00
9410;DHT22;4744;52.576;13.568;2023-02-13T04:56:30;6.20;1.00
9410;DHT22;4744;52.576;13.568;2023-02-13T04:58:59;6.20;1.00
9410;DHT22;4744;52.576;13.568;2023-02-13T05:01:26;6.20;1.00
9410;DHT22;4744;52.576;13.568;2023-02-13T05:03:53;6.20;1.00
9410;DHT22;4744;52.576;13.568;2023-02-13T05:06:19;6.20;1.00
9410;DHT22;4744;52.576;13.568;2023-02-13T05:08:47;6.20;1.00
9410;DHT22;4744;52.576;13.568;2023-02-13T05:11:14;6.20;1.00
9410;DHT22;4744;52.576;13.568;2023-02-13T05:13:41;6.20;1.00
9410;DHT22;4744;52.576;13.568;2023-02-13T05:16:09;6.20;1.00
9410;DHT22;4744;52.576;13.568;2023-02-13T05:18:36;6.20;1.00
9410;DHT22;4744;52.576;13.568;2023-02-13T05:21:03;6.20;1.00
9410;DHT22;4744;52.576;13.568;2023-02-13T05:23:48;6.20;1.00
9410;DHT22;4744;52.576;13.568;2023-02-13T05:26:15;6.20;1.00
9410;DHT22;4744;52.576;13.568;2023-02-13T05:28:42;6.20;1.00
9410;DHT22;4744;52.576;13.568;2023-02-13T05:31:28;6.30;1.00
9410;DHT22;4744;52.576;13.568;2023-02-13T05:33:55;6.30;1.00
9410;DHT22;4744;52.576;13.568;2023-02-13T05:36:22;6.30;1.00
9410;DHT22;4744;52.576;13.568;2023-02-13T05:38:49;6.30;1.00
9410;DHT22;4744;52.576;13.568;2023-02-13T05:41:16;6.30;1.00
9410;DHT22;4744;52.576;13.568;2023-02-13T05:43:43;6.30;1.00
9410;DHT22;4744;52.576;13.568;2023-02-13T05:46:10;6.30;1.00
9410;DHT22;4744;52.576;13.568;2023-02-13T05:48:38;6.30;1.00
9410;DHT22;4744;52.576;13.568;2023-02-13T05:51:05;6.30;1.00
9410;DHT22;4744;52.576;13.568;2023-02-13T05:53:33;6.20;1.00
9410;DHT22;4744;52.576;13.568;2023-02-13T05:56:00;6.30;1.00
9410;DHT22;4744;52.576;13.568;2023-02-13T05:58:28;6.20;1.00
9410;DHT22;4744;52.576;13.568;2023-02-13T06:00:56;6.20;1.00
9410;DHT22;4744;52.576;13.568;2023-02-13T06:03:24;6.20;1.00
9410;DHT22;4744;52.576;13.568;2023-02-13T06:05:52;6.20;1.00
9410;DHT22;4744;52.576;13.568;2023-02-13T06:08:19;6.20;1.00
9410;DHT22;4744;52.576;13.568;2023-02-13T06:10:46;6.20;1.00
9410;DHT22;4744;52.576;13.568;2023-02-13T06:13:13;6.20;1.00
9410;DHT22;4744;52.576;13.568;2023-02-13T06:15:40;6.20;1.00
9410;DHT22;4744;52.576;13.568;2023-02-13T06:18:07;6.20;1.00
9410;DHT22;4744;52.576;13.568;2023-02-13T06:20:35;6.20;1.00
9410;DHT22;4744;52.576;13.568;2023-02-13T06:23:03;6.20;1.00
9410;DHT22;4744;52.576;13.568;2023-02-13T06:25:30;6.30;1.00
9410;DHT22;4744;52.576;13.568;2023-02-13T06:27:57;6.20;1.00
9410;DHT22;4744;52.576;13.568;2023-02-13T06:30:24;6.20;1.00
9410;DHT22;4744;52.576;13.568;2023-02-13T06:32:51;6.20;1.00
9410;DHT22;4744;52.576;13.568;2023-02-13T06:35:18;6.20;1.00
9410;DHT22;4744;52.576;13.568;2023-02-13T06:37:45;6.20;1.00
9410;DHT22;4744;52.576;13.568;2023-02-13T06:40:15;6.20;1.00
9410;DHT22;4744;52.576;13.568;2023-02-13T06:42:43;6.20;1.00
9410;DHT22;4744;52.576;13.568;2023-02-13T06:45:10;6.20;1.00
9410;DHT22;4744;52.576;13.568;2023-02-13T06:47:40;6.20;1.00
9410;DHT22;4744;52.576;13.568;2023-02-13T06:50:08;6.20;1.00
9410;DHT22;4744;52.576;13.568;2023-02-13T06:52:35;6.20;1.00
9410;DHT22;4744;52.576;13.568;2023-02-13T06:55:02;6.20;1.00
9410;DHT22;4744;52.576;13.568;2023-02-13T06:57:31;6.20;1.00
9410;DHT22;4744;52.576;13.568;2023-02-13T06:59:58;6.20;1.00
9410;DHT22;4744;52.576;13.568;2023-02-13T07:02:28;6.20;1.00
9410;DHT22;4744;52.576;13.568;2023-02-13T07:04:55;6.20;1.00
9410;DHT22;4744;52.576;13.568;2023-02-13T07:07:22;6.20;1.00
9410;DHT22;4744;52.576;13.568;2023-02-13T07:09:49;6.20;1.00
9410;DHT22;4744;52.576;13.568;2023-02-13T07:12:16;6.30;1.00
9410;DHT22;4744;52.576;13.568;2023-02-13T07:14:44;6.30;1.00
9410;DHT22;4744;52.576;13.568;2023-02-13T07:17:11;6.30;1.00
9410;DHT22;4744;52.576;13.568;2023-02-13T07:19:38;6.30;1.00
9410;DHT22;4744;52.576;13.568;2023-02-13T07:22:05;6.30;1.00
9410;DHT22;4744;52.576;13.568;2023-02-13T07:24:32;6.30;1.00
9410;DHT22;4744;52.576;13.568;2023-02-13T07:27:00;6.40;1.00
9410;DHT22;4744;52.576;13.568;2023-02-13T07:29:27;6.40;1.00
9410;DHT22;4744;52.576;13.568;2023-02-13T07:31:55;6.40;1.00
9410;DHT22;4744;52.576;13.568;2023-02-13T07:34:22;6.40;1.00
9410;DHT22;4744;52.576;13.568;2023-02-13T07:36:49;6.40;1.00
9410;DHT22;4744;52.576;13.568;2023-02-13T07:39:16;6.50;1.00
9410;DHT22;4744;52.576;13.568;2023-02-13T07:41:43;6.50;1.00
9410;DHT22;4744;52.576;13.568;2023-02-13T07:44:10;6.50;1.00
9410;DHT22;4744;52.576;13.568;2023-02-13T07:46:37;6.60;1.00
9410;DHT22;4744;52.576;13.568;2023-02-13T07:49:06;6.60;1.00
9410;DHT22;4744;52.576;13.568;2023-02-13T07:51:33;6.60;1.00
9410;DHT22;4744;52.576;13.568;2023-02-13T07:54:00;6.60;1.00
9410;DHT22;4744;52.576;13.568;2023-02-13T07:56:27;6.60;1.00
9410;DHT22;4744;52.576;13.568;2023-02-13T07:58:54;6.60;1.00
9410;DHT22;4744;52.576;13.568;2023-02-13T08:01:21;6.60;1.00
9410;DHT22;4744;52.576;13.568;2023-02-13T08:03:49;6.60;1.00
9410;DHT22;4744;52.576;13.568;2023-02-13T08:06:18;6.60;1.00
9410;DHT22;4744;52.576;13.568;2023-02-13T08:08:46;6.60;1.00
9410;DHT22;4744;52.576;13.568;2023-02-13T08:11:22;6.60;1.00
9410;DHT22;4744;52.576;13.568;2023-02-13T08:14:07;6.60;1.00
9410;DHT22;4744;52.576;13.568;2023-02-13T08:16:34;6.60;1.00
9410;DHT22;4744;52.576;13.568;2023-02-13T08:19:01;6.60;1.00
9410;DHT22;4744;52.576;13.568;2023-02-13T08:21:30;6.60;1.00
9410;DHT22;4744;52.576;13.568;2023-02-13T08:23:57;6.60;1.00
9410;DHT22;4744;52.576;13.568;2023-02-13T08:26:24;6.60;1.00
9410;DHT22;4744;52.576;13.568;2023-02-13T08:28:51;6.60;1.00
9410;DHT22;4744;52.576;13.568;2023-02-13T08:31:18;6.70;1.00
9410;DHT22;4744;52.576;13.568;2023-02-13T08:33:45;6.60;1.00
9410;DHT22;4744;52.576;13.568;2023-02-13T08:36:12;6.70;1.00
9410;DHT22;4744;52.576;13.568;2023-02-13T08:38:40;6.70;1.00
9410;DHT22;4744;52.576;13.568;2023-02-13T08:41:07;6.70;1.00
9410;DHT22;4744;52.576;13.568;2023-02-13T08:43:35;6.70;1.00
9410;DHT22;4744;52.576;13.568;2023-02-13T08:46:02;6.80;1.00
9410;DHT22;4744;52.576;13.568;2023-02-13T08:48:29;6.80;1.00
9410;DHT22;4744;52.576;13.568;2023-02-13T08:50:56;6.80;1.00
9410;DHT22;4744;52.576;13.568;2023-02-13T08:53:25;6.80;1.00
9410;DHT22;4744;52.576;13.568;2023-02-13T08:55:54;6.80;1.00
9410;DHT22;4744;52.576;13.568;2023-02-13T08:58:21;6.80;1.00
9410;DHT22;4744;52.576;13.568;2023-02-13T09:00:48;6.90;1.00
9410;DHT22;4744;52.576;13.568;2023-02-13T09:03:15;7.00;1.00
9410;DHT22;4744;52.576;13.568;2023-02-13T09:05:42;7.10;1.00
9410;DHT22;4744;52.576;13.568;2023-02-13T09:08:09;7.10;1.00
9410;DHT22;4744;52.576;13.568;2023-02-13T09:10:38;7.20;1.00
9410;DHT22;4744;52.576;13.568;2023-02-13T09:13:07;7.30;1.00
9410;DHT22;4744;52.576;13.568;2023-02-13T09:15:36;7.30;1.00
9410;DHT22;4744;52.576;13.568;2023-02-13T09:18:03;7.40;1.00
9410;DHT22;4744;52.576;13.568;2023-02-13T09:20:30;7.50;1.00
9410;DHT22;4744;52.576;13.568;2023-02-13T09:22:57;7.50;1.00
9410;DHT22;4744;52.576;13.568;2023-02-13T09:25:24;7.50;1.00
9410;DHT22;4744;52.576;13.568;2023-02-13T09:27:51;7.60;1.00
9410;DHT22;4744;52.576;13.568;2023-02-13T09:30:19;7.70;1.00
9410;DHT22;4744;52.576;13.568;2023-02-13T09:32:49;7.60;1.00
9410;DHT22;4744;52.576;13.568;2023-02-13T09:35:16;7.70;1.00
9410;DHT22;4744;52.576;13.568;2023-02-13T09:37:43;7.70;1.00
9410;DHT22;4744;52.576;13.568;2023-02-13T09:40:21;7.70;1.00
9410;DHT22;4744;52.576;13.568;2023-02-13T09:42:50;7.70;1.00
9410;DHT22;4744;52.576;13.568;2023-02-13T09:45:20;7.80;1.00
9410;DHT22;4744;52.576;13.568;2023-02-13T09:47:47;7.80;1.00
9410;DHT22;4744;52.576;13.568;2023-02-13T09:50:18;7.80;1.00
9410;DHT22;4744;52.576;13.568;2023-02-13T09:52:49;7.80;1.00
9410;DHT22;4744;52.576;13.568;2023-02-13T09:55:18;7.80;1.00
9410;DHT22;4744;52.576;13.568;2023-02-13T09:57:50;7.80;1.00
9410;DHT22;4744;52.576;13.568;2023-02-13T10:00:23;7.80;1.00
9410;DHT22;4744;52.576;13.568;2023-02-13T10:03:06;7.80;1.00
9410;DHT22;4744;52.576;13.568;2023-02-13T10:05:45;7.80;1.00
9410;DHT22;4744;52.576;13.568;2023-02-13T10:08:20;7.80;1.00
9410;DHT22;4744;52.576;13.568;2023-02-13T10:10:52;7.90;1.00
9410;DHT22;4744;52.576;13.568;2023-02-13T10:13:44;7.90;1.00
9410;DHT22;4744;52.576;13.568;2023-02-13T10:16:16;7.80;1.00
9410;DHT22;4744;52.576;13.568;2023-02-13T10:18:49;7.80;1.00
9410;DHT22;4744;52.576;13.568;2023-02-13T10:21:20;7.80;1.00
9410;DHT22;4744;52.576;13.568;2023-02-13T10:23:53;7.90;1.00
9410;DHT22;4744;52.576;13.568;2023-02-13T10:26:22;7.90;1.00
9410;DHT22;4744;52.576;13.568;2023-02-13T10:28:56;7.90;1.00
9410;DHT22;4744;52.576;13.568;2023-02-13T10:31:47;7.90;1.00
9410;DHT22;4744;52.576;13.568;2023-02-13T10:34:21;7.90;1.00
9410;DHT22;4744;52.576;13.568;2023-02-13T10:36:50;7.90;1.00
9410;DHT22;4744;52.576;13.568;2023-02-13T10:39:22;7.90;1.00
9410;DHT22;4744;52.576;13.568;2023-02-13T10:41:52;7.90;1.00
9410;DHT22;4744;52.576;13.568;2023-02-13T10:44:29;7.90;1.00
9410;DHT22;4744;52.576;13.568;2023-02-13T10:47:09;7.90;1.00
9410;DHT22;4744;52.576;13.568;2023-02-13T10:49:50;7.90;1.00
9410;DHT22;4744;52.576;13.568;2023-02-13T10:52:30;8.00;1.00
9410;DHT22;4744;52.576;13.568;2023-02-13T10:55:08;8.00;1.00
9410;DHT22;4744;52.576;13.568;2023-02-13T10:57:52;8.00;1.00
9410;DHT22;4744;52.576;13.568;2023-02-13T11:00:26;8.00;1.00
9410;DHT22;4744;52.576;13.568;2023-02-13T11:02:57;8.00;1.00
9410;DHT22;4744;52.576;13.568;2023-02-13T11:05:30;8.00;1.00
9410;DHT22;4744;52.576;13.568;2023-02-13T11:07:58;8.10;1.00
9410;DHT22;4744;52.576;13.568;2023-02-13T11:10:27;8.10;1.00
9410;DHT22;4744;52.576;13.568;2023-02-13T11:12:54;8.10;1.00
9410;DHT22;4744;52.576;13.568;2023-02-13T11:15:24;8.10;1.00
9410;DHT22;4744;52.576;13.568;2023-02-13T11:17:53;8.00;1.00
9410;DHT22;4744;52.576;13.568;2023-02-13T11:20:34;8.00;1.00
9410;DHT22;4744;52.576;13.568;2023-02-13T11:23:24;8.00;1.00
9410;DHT22;4744;52.576;13.568;2023-02-13T11:25:56;7.90;1.00
9410;DHT22;4744;52.576;13.568;2023-02-13T11:28:23;7.90;1.00
9410;DHT22;4744;52.576;13.568;2023-02-13T11:30:51;7.90;1.00
9410;DHT22;4744;52.576;13.568;2023-02-13T11:33:21;7.90;1.00
9410;DHT22;4744;52.576;13.568;2023-02-13T11:36:04;7.80;1.00
9410;DHT22;4744;52.576;13.568;2023-02-13T11:38:31;7.80;1.00
9410;DHT22;4744;52.576;13.568;2023-02-13T11:41:10;7.80;1.00
9410;DHT22;4744;52.576;13.568;2023-02-13T11:43:43;7.80;1.00
9410;DHT22;4744;52.576;13.568;2023-02-13T11:46:17;7.80;1.00
9410;DHT22;4744;52.576;13.568;2023-02-13T11:48:58;7.80;1.00
9410;DHT22;4744;52.576;13.568;2023-02-13T11:51:38;7.80;1.00
9410;DHT22;4744;52.576;13.568;2023-02-13T11:54:10;7.80;1.00
9410;DHT22;4744;52.576;13.568;2023-02-13T11:56:49;7.80;1.00
9410;DHT22;4744;52.576;13.568;2023-02-13T11:59:16;7.90;1.00
9410;DHT22;4744;52.576;13.568;2023-02-13T12:01:43;7.90;1.00
9410;DHT22;4744;52.576;13.568;2023-02-13T12:04:15;7.90;1.00
9410;DHT22;4744;52.576;13.568;2023-02-13T12:06:58;8.00;1.00
9410;DHT22;4744;52.576;13.568;2023-02-13T12:09:25;8.00;1.00
9410;DHT22;4744;52.576;13.568;2023-02-13T12:11:56;8.00;1.00
9410;DHT22;4744;52.576;13.568;2023-02-13T12:14:25;8.00;1.00
9410;DHT22;4744;52.576;13.568;2023-02-13T12:16:56;8.00;1.00
9410;DHT22;4744;52.576;13.568;2023-02-13T12:19:32;8.00;1.00
9410;DHT22;4744;52.576;13.568;2023-02-13T12:22:18;8.00;1.00
9410;DHT22;4744;52.576;13.568;2023-02-13T12:25:09;8.00;1.00
9410;DHT22;4744;52.576;13.568;2023-02-13T12:27:43;8.00;1.00
9410;DHT22;4744;52.576;13.568;2023-02-13T12:30:39;8.00;1.00
9410;DHT22;4744;52.576;13.568;2023-02-13T12:33:20;8.00;1.00
9410;DHT22;4744;52.576;13.568;2023-02-13T12:35:56;8.00;1.00
9410;DHT22;4744;52.576;13.568;2023-02-13T12:38:44;7.90;1.00
9410;DHT22;4744;52.576;13.568;2023-02-13T12:41:18;7.90;1.00
9410;DHT22;4744;52.576;13.568;2023-02-13T12:44:18;7.90;1.00
9410;DHT22;4744;52.576;13.568;2023-02-13T12:46:54;7.90;1.00
9410;DHT22;4744;52.576;13.568;2023-02-13T12:49:59;7.90;1.00
9410;DHT22;4744;52.576;13.568;2023-02-13T12:52:45;7.90;1.00
9410;DHT22;4744;52.576;13.568;2023-02-13T12:55:27;7.90;1.00
9410;DHT22;4744;52.576;13.568;2023-02-13T12:58:06;7.90;1.00
9410;DHT22;4744;52.576;13.568;2023-02-13T13:00:46;7.90;1.00
9410;DHT22;4744;52.576;13.568;2023-02-13T13:03:24;7.90;1.00
9410;DHT22;4744;52.576;13.568;2023-02-13T13:06:09;7.90;1.00
9410;DHT22;4744;52.576;13.568;2023-02-13T13:09:03;7.90;1.00
9410;DHT22;4744;52.576;13.568;2023-02-13T13:11:49;7.90;1.00
9410;DHT22;4744;52.576;13.568;2023-02-13T13:14:28;7.90;1.00
9410;DHT22;4744;52.576;13.568;2023-02-13T13:17:01;7.90;1.00
9410;DHT22;4744;52.576;13.568;2023-02-13T13:19:35;7.80;1.00
9410;DHT22;4744;52.576;13.568;2023-02-13T13:22:05;7.90;1.00
9410;DHT22;4744;52.576;13.568;2023-02-13T13:24:42;7.80;1.00
9410;DHT22;4744;52.576;13.568;2023-02-13T13:27:19;7.80;1.00
9410;DHT22;4744;52.576;13.568;2023-02-13T13:29:52;7.80;1.00
9410;DHT22;4744;52.576;13.568;2023-02-13T13:32:21;7.80;1.00
9410;DHT22;4744;52.576;13.568;2023-02-13T13:34:48;7.80;1.00
9410;DHT22;4744;52.576;13.568;2023-02-13T13:37:22;7.80;1.00
9410;DHT22;4744;52.576;13.568;2023-02-13T13:39:56;7.80;1.00
9410;DHT22;4744;52.576;13.568;2023-02-13T13:42:33;7.80;1.00
9410;DHT22;4744;52.576;13.568;2023-02-13T13:45:21;7.80;1.00
9410;DHT22;4744;52.576;13.568;2023-02-13T13:48:08;7.80;1.00
9410;DHT22;4744;52.576;13.568;2023-02-13T13:50:43;7.80;1.00
9410;DHT22;4744;52.576;13.568;2023-02-13T13:53:12;7.80;1.00
9410;DHT22;4744;52.576;13.568;2023-02-13T13:56:01;7.80;1.00
9410;DHT22;4744;52.576;13.568;2023-02-13T13:58:40;7.70;1.00
9410;DHT22;4744;52.576;13.568;2023-02-13T14:01:31;7.70;1.00
9410;DHT22;4744;52.576;13.568;2023-02-13T14:03:59;7.70;1.00
9410;DHT22;4744;52.576;13.568;2023-02-13T14:07:13;7.70;1.00
9410;DHT22;4744;52.576;13.568;2023-02-13T14:09:36;7.70;1.00
9410;DHT22;4744;52.576;13.568;2023-02-13T14:12:34;7.70;1.00
9410;DHT22;4744;52.576;13.568;2023-02-13T14:15:03;7.70;1.00
9410;DHT22;4744;52.576;13.568;2023-02-13T14:17:53;7.70;1.00
9410;DHT22;4744;52.576;13.568;2023-02-13T14:20:33;7.70;1.00
9410;DHT22;4744;52.576;13.568;2023-02-13T14:23:25;7.70;1.00
9410;DHT22;4744;52.576;13.568;2023-02-13T14:26:12;7.60;1.00
9410;DHT22;4744;52.576;13.568;2023-02-13T14:28:56;7.60;1.00
9410;DHT22;4744;52.576;13.568;2023-02-13T14:31:27;7.60;1.00
9410;DHT22;4744;52.576;13.568;2023-02-13T14:33:56;7.60;1.00
9410;DHT22;4744;52.576;13.568;2023-02-13T14:36:27;7.60;1.00
9410;DHT22;4744;52.576;13.568;2023-02-13T14:39:00;7.60;1.00
9410;DHT22;4744;52.576;13.568;2023-02-13T14:41:56;7.60;1.00
9410;DHT22;4744;52.576;13.568;2023-02-13T14:44:26;7.60;1.00
9410;DHT22;4744;52.576;13.568;2023-02-13T14:46:59;7.60;1.00
9410;DHT22;4744;52.576;13.568;2023-02-13T14:49:28;7.60;1.00
9410;DHT22;4744;52.576;13.568;2023-02-13T14:51:58;7.60;1.00
9410;DHT22;4744;52.576;13.568;2023-02-13T14:54:30;7.50;1.00
9410;DHT22;4744;52.576;13.568;2023-02-13T14:57:04;7.50;1.00
9410;DHT22;4744;52.576;13.568;2023-02-13T14:59:35;7.50;1.00
9410;DHT22;4744;52.576;13.568;2023-02-13T15:02:16;7.50;1.00
9410;DHT22;4744;52.576;13.568;2023-02-13T15:04:46;7.50;1.00
9410;DHT22;4744;52.576;13.568;2023-02-13T15:07:17;7.50;1.00
9410;DHT22;4744;52.576;13.568;2023-02-13T15:09:49;7.50;1.00
9410;DHT22;4744;52.576;13.568;2023-02-13T15:12:25;7.50;1.00
9410;DHT22;4744;52.576;13.568;2023-02-13T15:14:52;7.50;1.00
9410;DHT22;4744;52.576;13.568;2023-02-13T15:17:22;7.50;1.00
9410;DHT22;4744;52.576;13.568;2023-02-13T15:19:51;7.40;1.00
9410;DHT22;4744;52.576;13.568;2023-02-13T15:22:20;7.40;1.00
9410;DHT22;4744;52.576;13.568;2023-02-13T15:24:52;7.40;1.00
9410;DHT22;4744;52.576;13.568;2023-02-13T15:27:25;7.40;1.00
9410;DHT22;4744;52.576;13.568;2023-02-13T15:29:53;7.30;1.00
9410;DHT22;4744;52.576;13.568;2023-02-13T15:32:28;7.30;1.00
9410;DHT22;4744;52.576;13.568;2023-02-13T15:34:55;7.30;1.00
9410;DHT22;4744;52.576;13.568;2023-02-13T15:37:23;7.30;1.00
9410;DHT22;4744;52.576;13.568;2023-02-13T15:39:50;7.20;1.00
9410;DHT22;4744;52.576;13.568;2023-02-13T15:42:17;7.20;1.00
9410;DHT22;4744;52.576;13.568;2023-02-13T15:44:46;7.20;1.00
9410;DHT22;4744;52.576;13.568;2023-02-13T15:47:25;7.20;1.00
9410;DHT22;4744;52.576;13.568;2023-02-13T15:49:53;7.20;1.00
9410;DHT22;4744;52.576;13.568;2023-02-13T15:52:25;7.10;1.00
9410;DHT22;4744;52.576;13.568;2023-02-13T15:54:55;7.10;1.00
9410;DHT22;4744;52.576;13.568;2023-02-13T15:57:22;7.10;1.00
9410;DHT22;4744;52.576;13.568;2023-02-13T15:59:52;7.10;1.00
9410;DHT22;4744;52.576;13.568;2023-02-13T16:02:22;7.10;1.00
9410;DHT22;4744;52.576;13.568;2023-02-13T16:04:53;7.10;1.00
9410;DHT22;4744;52.576;13.568;2023-02-13T16:07:21;7.10;1.00
9410;DHT22;4744;52.576;13.568;2023-02-13T16:09:48;7.00;1.00
9410;DHT22;4744;52.576;13.568;2023-02-13T16:12:19;7.00;1.00
9410;DHT22;4744;52.576;13.568;2023-02-13T16:14:50;7.00;1.00
9410;DHT22;4744;52.576;13.568;2023-02-13T16:17:26;7.00;1.00
9410;DHT22;4744;52.576;13.568;2023-02-13T16:19:58;7.00;1.00
9410;DHT22;4744;52.576;13.568;2023-02-13T16:22:32;7.00;1.00
9410;DHT22;4744;52.576;13.568;2023-02-13T16:25:17;6.90;1.00
9410;DHT22;4744;52.576;13.568;2023-02-13T16:27:47;6.90;1.00
9410;DHT22;4744;52.576;13.568;2023-02-13T16:30:23;6.90;1.00
9410;DHT22;4744;52.576;13.568;2023-02-13T16:32:51;6.90;1.00
9410;DHT22;4744;52.576;13.568;2023-02-13T16:35:27;6.80;1.00
9410;DHT22;4744;52.576;13.568;2023-02-13T16:37:56;6.80;1.00
9410;DHT22;4744;52.576;13.568;2023-02-13T16:40:36;6.80;1.00
9410;DHT22;4744;52.576;13.568;2023-02-13T16:43:39;6.80;1.00
9410;DHT22;4744;52.576;13.568;2023-02-13T16:46:18;6.80;1.00
9410;DHT22;4744;52.576;13.568;2023-02-13T16:48:56;6.80;1.00
9410;DHT22;4744;52.576;13.568;2023-02-13T16:51:35;6.80;1.00
9410;DHT22;4744;52.576;13.568;2023-02-13T16:54:04;6.70;1.00